Time;durP1;ratioP1;P1;durP2;ratioP2;P2;SDS_P1;SDS_P2;PMS_P1;PMS_P2;Temp;Humidity;BMP_temperature;BMP_pressure;BME280_temperature;BME280_humidity;BME280_pressure;Samples;Min_cycle;Max_cycle;Signal;HPM_P1;HPM_P2
2022/03/25 00:01:07;;;;;;;34.08;23.27;;;;;;;12.36;36.37;101622.31;4161748;28;20496;-58
2022/03/25 00:03:10;;;;;;;31.73;22.50;;;;;;;12.36;36.74;101624.06;4160789;28;20038;-58
2022/03/25 00:05:13;;;;;;;32.50;22.30;;;;;;;12.33;36.25;101621.38;4164141;28;20199;-58
2022/03/25 00:07:17;;;;;;;34.00;22.05;;;;;;;12.31;36.26;101629.16;4163615;28;20120;-58
2022/03/25 00:09:20;;;;;;;36.95;24.95;;;;;;;12.21;36.03;101638.44;4158384;28;20049;-58
2022/03/25 00:11:22;;;;;;;41.28;25.52;;;;;;;12.25;36.58;101630.72;4149565;28;20464;-58
2022/03/25 00:13:26;;;;;;;32.40;21.83;;;;;;;12.24;36.40;101640.25;4141684;28;20048;-58
2022/03/25 00:15:28;;;;;;;36.85;24.38;;;;;;;12.22;36.11;101639.31;4142322;28;20050;-58
2022/03/25 00:17:31;;;;;;;34.67;22.55;;;;;;;12.17;35.72;101634.00;4146749;28;20042;-58
2022/03/25 00:19:34;;;;;;;36.13;23.58;;;;;;;12.17;36.52;101631.38;4158053;28;20045;-59
2022/03/25 00:21:37;;;;;;;37.67;25.30;;;;;;;12.16;36.02;101634.84;4155408;28;20042;-58
2022/03/25 00:23:42;;;;;;;35.40;23.50;;;;;;;12.18;35.88;101629.69;4156965;28;20065;-58
2022/03/25 00:25:44;;;;;;;35.63;23.42;;;;;;;12.15;36.66;101632.19;4162319;28;20379;-58
2022/03/25 00:27:47;;;;;;;43.70;25.48;;;;;;;12.14;36.24;101635.66;4164359;28;20033;-58
2022/03/25 00:29:50;;;;;;;37.53;24.92;;;;;;;12.11;36.93;101631.22;4153981;28;20128;-58
2022/03/25 00:31:54;;;;;;;41.00;25.27;;;;;;;12.09;36.53;101634.63;4141888;28;20056;-58
2022/03/25 00:33:56;;;;;;;34.88;22.35;;;;;;;12.01;36.74;101631.81;4144177;28;20137;-58
2022/03/25 00:35:59;;;;;;;38.85;26.45;;;;;;;11.98;36.55;101630.00;4154285;28;20423;-58
2022/03/25 00:38:02;;;;;;;40.67;25.10;;;;;;;11.94;36.94;101637.72;4141331;28;20604;-58
2022/03/25 00:40:08;;;;;;;33.40;22.83;;;;;;;11.86;37.28;101632.25;4143624;28;20415;-58
2022/03/25 00:42:13;;;;;;;34.28;22.80;;;;;;;11.85;36.97;101626.16;4148303;28;20140;-58
2022/03/25 00:44:18;;;;;;;46.25;25.40;;;;;;;11.84;36.56;101629.63;4160275;28;20034;-58
2022/03/25 00:46:21;;;;;;;36.35;25.20;;;;;;;11.80;37.04;101627.75;4161418;28;20414;-59
2022/03/25 00:48:24;;;;;;;41.55;25.73;;;;;;;11.77;38.91;101625.06;4146945;28;20049;-58
2022/03/25 00:50:27;;;;;;;47.35;24.92;;;;;;;11.69;38.55;101618.75;4146932;28;20479;-58
2022/03/25 00:52:30;;;;;;;35.83;24.55;;;;;;;11.59;38.80;101622.81;4145827;28;20069;-58
2022/03/25 00:54:36;;;;;;;43.95;26.17;;;;;;;11.51;38.79;101622.59;4145188;28;20050;-58
2022/03/25 00:56:40;;;;;;;36.63;22.88;;;;;;;11.39;38.38;101622.25;4155390;28;20092;-59
2022/03/25 00:58:43;;;;;;;41.70;26.77;;;;;;;11.29;38.35;101623.69;4142403;28;20056;-58
2022/03/25 01:00:46;;;;;;;31.30;20.67;;;;;;;11.18;38.63;101623.38;4177091;28;20045;-58
2022/03/25 01:02:49;;;;;;;34.97;24.17;;;;;;;11.13;38.60;101627.53;4162742;28;20049;-59
2022/03/25 01:04:52;;;;;;;38.10;24.65;;;;;;;11.12;38.87;101630.09;4149660;28;20050;-58
2022/03/25 01:06:55;;;;;;;33.92;22.00;;;;;;;11.06;39.18;101616.91;4132768;28;20129;-58
2022/03/25 01:08:58;;;;;;;33.85;21.88;;;;;;;11.07;38.71;101616.03;4146446;28;20518;-58
2022/03/25 01:11:01;;;;;;;36.67;25.38;;;;;;;11.09;38.08;101617.88;4137096;28;20590;-58
2022/03/25 01:13:06;;;;;;;42.72;24.60;;;;;;;11.13;38.39;101619.72;4147272;28;20052;-58
2022/03/25 01:15:10;;;;;;;32.53;21.83;;;;;;;11.14;38.83;101621.50;4130127;28;20042;-59
2022/03/25 01:17:16;;;;;;;37.13;23.38;;;;;;;11.08;38.70;101617.81;4144595;28;20048;-59
2022/03/25 01:19:20;;;;;;;37.08;24.60;;;;;;;10.95;38.57;101612.25;4152654;28;20462;-59
2022/03/25 01:21:23;;;;;;;37.88;22.58;;;;;;;10.96;38.48;101613.13;4146028;28;20140;-59
2022/03/25 01:23:27;;;;;;;38.22;25.33;;;;;;;10.95;39.18;101608.75;4163778;28;20037;-59
2022/03/25 01:25:30;;;;;;;36.85;23.65;;;;;;;10.96;39.07;101613.13;4137695;28;20495;-59
2022/03/25 01:27:32;;;;;;;36.70;23.67;;;;;;;10.95;38.78;101613.94;4156136;28;20075;-59
2022/03/25 01:29:36;;;;;;;41.10;25.35;;;;;;;10.96;39.59;101610.53;4163520;28;20046;-59
2022/03/25 01:31:39;;;;;;;40.38;26.13;;;;;;;10.98;38.68;101612.34;4154448;28;20042;-59
2022/03/25 01:33:42;;;;;;;40.10;27.45;;;;;;;11.03;38.42;101615.09;4145306;28;20046;-59
2022/03/25 01:35:45;;;;;;;38.55;25.13;;;;;;;11.05;38.34;101605.59;4136833;28;20156;-59
2022/03/25 01:37:48;;;;;;;43.05;27.02;;;;;;;11.05;38.82;101613.41;4156824;28;20055;-59
2022/03/25 01:39:51;;;;;;;46.40;27.90;;;;;;;11.08;38.47;101607.41;4136602;28;20141;-59
2022/03/25 01:41:55;;;;;;;43.85;28.42;;;;;;;11.08;38.54;101605.72;4139682;28;20054;-62
2022/03/25 01:44:00;;;;;;;44.90;26.98;;;;;;;11.10;38.27;101608.34;4139907;28;20132;-59
2022/03/25 01:46:06;;;;;;;42.67;25.63;;;;;;;11.05;38.87;101610.78;4161466;28;20045;-59
2022/03/25 01:48:10;;;;;;;37.67;24.60;;;;;;;11.06;38.43;101604.75;4140990;28;20042;-59
2022/03/25 01:50:19;;;;;;;41.75;26.35;;;;;;;11.06;38.54;101606.50;4152764;28;20052;-59
2022/03/25 01:52:22;;;;;;;40.38;27.23;;;;;;;11.04;38.84;101597.75;4160558;28;20041;-59
2022/03/25 01:54:28;;;;;;;39.13;25.23;;;;;;;11.07;38.43;101597.81;4145604;28;20049;-59
2022/03/25 01:56:30;;;;;;;43.88;26.35;;;;;;;11.07;38.11;101603.94;4138653;28;20133;-59
2022/03/25 01:58:33;;;;;;;40.08;25.25;;;;;;;11.06;38.48;101599.56;4130935;28;20061;-59
2022/03/25 02:00:37;;;;;;;43.92;25.02;;;;;;;11.06;38.44;101602.16;4130931;28;20448;-59
2022/03/25 02:02:43;;;;;;;36.60;24.65;;;;;;;11.06;38.49;101606.50;4155406;28;20048;-59
2022/03/25 02:04:46;;;;;;;38.80;24.33;;;;;;;11.00;38.45;101600.25;4151792;28;20041;-59
2022/03/25 02:06:49;;;;;;;36.75;24.05;;;;;;;10.95;38.52;101594.03;4161976;28;20128;-59
2022/03/25 02:08:52;;;;;;;39.13;25.40;;;;;;;10.96;38.72;101592.31;4155427;28;20127;-59
2022/03/25 02:10:55;;;;;;;36.58;25.55;;;;;;;10.92;38.33;101598.25;4139985;28;20057;-59
2022/03/25 02:12:58;;;;;;;40.20;25.40;;;;;;;10.95;38.37;101595.75;4129590;28;20049;-59
2022/03/25 02:15:01;;;;;;;36.63;26.33;;;;;;;10.92;38.08;101599.16;4129749;28;20131;-59
2022/03/25 02:17:05;;;;;;;33.42;23.88;;;;;;;10.91;38.20;101589.56;4131665;28;20488;-59
2022/03/25 02:19:12;;;;;;;39.23;23.60;;;;;;;10.87;38.67;101594.63;4133441;28;20080;-59
2022/03/25 02:21:14;;;;;;;41.08;25.45;;;;;;;10.83;39.34;101591.94;4148539;28;20670;-59
2022/03/25 02:23:19;;;;;;;43.15;27.73;;;;;;;10.86;39.14;101598.06;4148876;28;20053;-59
2022/03/25 02:25:26;;;;;;;34.95;23.48;;;;;;;10.84;38.93;101600.63;4148693;28;20574;-59
2022/03/25 02:27:31;;;;;;;41.83;26.95;;;;;;;10.79;38.98;101602.19;4138388;28;20049;-59
2022/03/25 02:29:33;;;;;;;43.03;27.95;;;;;;;10.73;39.14;101605.50;4147990;28;20128;-59
2022/03/25 02:31:38;;;;;;;46.97;30.02;;;;;;;10.74;39.44;101604.63;4149005;28;20212;-59
2022/03/25 02:33:40;;;;;;;44.88;27.83;;;;;;;10.74;38.95;101602.03;4132631;28;20415;-59
2022/03/25 02:35:45;;;;;;;41.22;26.83;;;;;;;10.76;40.08;101604.69;4140204;28;20050;-59
2022/03/25 02:37:48;;;;;;;36.88;24.40;;;;;;;10.74;40.12;101603.75;4148152;28;20041;-59
2022/03/25 02:39:52;;;;;;;42.38;26.27;;;;;;;10.76;39.32;101608.19;4132950;28;20046;-59
2022/03/25 02:41:55;;;;;;;40.33;26.20;;;;;;;10.75;39.79;101606.41;4141106;28;20548;-59
2022/03/25 02:43:59;;;;;;;41.00;27.38;;;;;;;10.79;40.33;101599.56;4146668;28;20073;-59
2022/03/25 02:46:01;;;;;;;49.10;27.30;;;;;;;10.69;40.63;101602.72;4137900;28;20068;-59
2022/03/25 02:48:05;;;;;;;42.65;28.23;;;;;;;10.71;40.01;101601.06;4147884;28;20129;-59
2022/03/25 02:50:09;;;;;;;45.63;30.33;;;;;;;10.70;39.69;101597.56;4148376;28;20507;-59
2022/03/25 02:52:11;;;;;;;43.78;30.65;;;;;;;10.69;40.39;101598.41;4149303;28;20458;-59
2022/03/25 02:54:15;;;;;;;47.88;30.05;;;;;;;10.71;39.96;101594.13;4160639;28;20045;-59
2022/03/25 02:56:19;;;;;;;51.80;30.65;;;;;;;10.76;39.82;101602.09;4163033;28;20459;-59
2022/03/25 02:58:22;;;;;;;48.00;31.60;;;;;;;10.80;40.29;101604.81;4152046;28;20104;-59
2022/03/25 03:00:26;;;;;;;44.13;29.33;;;;;;;10.70;40.22;101602.75;4162518;28;20053;-59
2022/03/25 03:02:29;;;;;;;46.72;32.08;;;;;;;10.71;39.88;101604.53;4161534;28;20103;-60
2022/03/25 03:04:32;;;;;;;47.17;28.23;;;;;;;10.71;40.12;101601.94;4147164;28;20050;-59
2022/03/25 03:06:34;;;;;;;45.17;29.38;;;;;;;10.61;40.36;101605.06;4160621;28;20076;-59
2022/03/25 03:08:37;;;;;;;45.20;29.55;;;;;;;10.61;40.23;101602.47;4165513;28;20407;-59
2022/03/25 03:10:41;;;;;;;47.83;29.20;;;;;;;10.56;40.58;101599.72;4149707;28;20389;-59
2022/03/25 03:12:45;;;;;;;49.63;32.72;;;;;;;10.65;40.36;101614.75;4150412;28;20038;-59
2022/03/25 03:14:48;;;;;;;48.42;27.90;;;;;;;10.53;40.56;101609.13;4165916;28;20447;-59
2022/03/25 03:16:50;;;;;;;45.83;29.70;;;;;;;10.51;41.23;101605.63;4163374;28;20447;-59
2022/03/25 03:18:53;;;;;;;43.08;28.05;;;;;;;10.46;41.86;101606.34;4146913;28;20439;-59
2022/03/25 03:20:56;;;;;;;45.83;28.83;;;;;;;10.45;41.81;101612.41;4165976;28;20053;-59
2022/03/25 03:22:59;;;;;;;45.95;28.30;;;;;;;10.45;41.57;101609.78;4154073;28;20084;-59
2022/03/25 03:25:03;;;;;;;45.78;30.15;;;;;;;10.48;40.69;101604.69;4151838;28;20048;-59
2022/03/25 03:27:06;;;;;;;42.88;28.23;;;;;;;10.46;41.14;101606.34;4163466;28;20045;-59
2022/03/25 03:29:10;;;;;;;49.00;31.33;;;;;;;10.53;40.87;101609.13;4161975;28;20515;-59
2022/03/25 03:31:14;;;;;;;45.08;29.38;;;;;;;10.47;40.90;101605.53;4158500;28;20401;-59
2022/03/25 03:33:17;;;;;;;46.85;31.65;;;;;;;10.50;40.78;101603.84;4150207;28;20050;-59
2022/03/25 03:35:20;;;;;;;42.53;29.55;;;;;;;10.47;40.78;101605.53;4149314;28;20046;-59
2022/03/25 03:37:23;;;;;;;52.50;33.15;;;;;;;10.46;41.35;101601.13;4157223;28;20478;-59
2022/03/25 03:39:26;;;;;;;45.17;32.10;;;;;;;10.41;41.13;101602.72;4164963;28;20454;-59
2022/03/25 03:41:28;;;;;;;42.65;29.77;;;;;;;10.36;41.33;101596.47;4137493;28;20050;-59
2022/03/25 03:43:31;;;;;;;48.08;30.88;;;;;;;10.42;41.30;101596.66;4151416;28;20045;-59
2022/03/25 03:45:35;;;;;;;43.58;28.63;;;;;;;10.42;41.46;101595.78;4147702;28;20038;-59
2022/03/25 03:47:39;;;;;;;37.05;28.05;;;;;;;10.30;43.61;101598.84;4165355;28;20079;-59
2022/03/25 03:49:42;;;;;;;37.67;25.33;;;;;;;10.22;42.80;101603.78;4161226;28;20087;-59
2022/03/25 03:51:45;;;;;;;43.30;25.90;;;;;;;10.14;43.50;101603.50;4165226;28;20276;-59
2022/03/25 03:53:47;;;;;;;39.97;26.63;;;;;;;10.05;44.54;101604.91;4146743;28;20429;-59
2022/03/25 03:55:50;;;;;;;43.63;27.60;;;;;;;9.96;45.29;101605.47;4156320;28;20034;-59
2022/03/25 03:57:53;;;;;;;38.58;27.30;;;;;;;9.87;45.60;101598.25;4153835;28;20045;-59
2022/03/25 03:59:55;;;;;;;40.10;27.42;;;;;;;9.83;46.10;101603.25;4164418;28;20064;-59
2022/03/25 04:02:00;;;;;;;44.83;28.38;;;;;;;9.84;45.66;101605.03;4162780;28;20034;-59
2022/03/25 04:04:03;;;;;;;42.80;28.83;;;;;;;9.78;46.94;101606.59;4141870;28;20042;-59
2022/03/25 04:06:06;;;;;;;39.88;28.33;;;;;;;9.73;48.71;101608.13;4159775;28;20037;-59
2022/03/25 04:08:09;;;;;;;39.88;28.00;;;;;;;9.65;50.20;101603.47;4160302;28;20460;-59
2022/03/25 04:10:12;;;;;;;42.55;28.98;;;;;;;9.59;50.79;101606.75;4135263;28;20056;-59
2022/03/25 04:12:14;;;;;;;41.25;29.52;;;;;;;9.47;50.96;101608.91;4164133;28;20103;-59
2022/03/25 04:14:17;;;;;;;42.83;29.60;;;;;;;9.42;50.80;101606.13;4160818;28;20123;-59
2022/03/25 04:16:21;;;;;;;39.30;30.55;;;;;;;9.34;51.08;101599.75;4143950;28;20050;-59
2022/03/25 04:18:26;;;;;;;39.53;28.85;;;;;;;9.30;50.15;101609.16;4161876;28;20042;-59
2022/03/25 04:20:29;;;;;;;;;;;;;;;9.12;51.15;101606.72;4160145;28;20502;-59
2022/03/25 04:22:31;;;;;;;50.88;29.92;;;;;;;9.28;49.02;101602.13;4163855;28;19974;-59
2022/03/25 04:24:34;;;;;;;44.10;30.45;;;;;;;9.37;48.36;101605.06;4159603;28;20558;-59
2022/03/25 04:26:37;;;;;;;53.88;30.98;;;;;;;9.49;46.54;101615.91;4152039;28;20041;-59
2022/03/25 04:28:39;;;;;;;43.15;30.63;;;;;;;9.52;48.14;101612.53;4163987;28;20053;-59
2022/03/25 04:30:42;;;;;;;39.33;26.88;;;;;;;9.50;47.34;101619.38;4159266;28;20568;-59
2022/03/25 04:32:45;;;;;;;44.38;28.85;;;;;;;9.48;47.64;101616.72;4142556;28;20053;-59
2022/03/25 04:34:49;;;;;;;50.58;31.40;;;;;;;9.57;45.52;101617.06;4154722;28;20046;-59
2022/03/25 04:36:52;;;;;;;45.33;30.02;;;;;;;9.58;47.16;101610.19;4156462;28;20399;-59
2022/03/25 04:38:54;;;;;;;40.90;29.75;;;;;;;9.53;46.80;101614.31;4154259;28;20084;-59
2022/03/25 04:40:57;;;;;;;45.63;29.63;;;;;;;9.52;46.68;101612.53;4148630;28;20039;-59
2022/03/25 04:43:01;;;;;;;44.67;31.25;;;;;;;9.44;48.37;101613.13;4153979;28;20107;-59
2022/03/25 04:45:06;;;;;;;38.78;27.30;;;;;;;9.35;48.09;101610.19;4163041;28;20033;-59
2022/03/25 04:47:09;;;;;;;42.13;28.30;;;;;;;9.33;49.75;101617.06;4163758;28;20454;-59
2022/03/25 04:49:11;;;;;;;47.40;30.08;;;;;;;9.28;50.10;101610.78;4159319;28;20405;-59
2022/03/25 04:51:16;;;;;;;42.55;30.58;;;;;;;9.25;48.70;101611.53;4130882;28;20054;-59
2022/03/25 04:53:18;;;;;;;34.40;26.67;;;;;;;9.16;49.65;101612.94;4147981;28;20392;-59
2022/03/25 04:55:21;;;;;;;44.42;28.02;;;;;;;9.15;50.06;101616.34;4144449;28;20042;-59
2022/03/25 04:57:24;;;;;;;39.35;28.65;;;;;;;9.13;50.67;101623.19;4151378;28;20041;-59
2022/03/25 04:59:27;;;;;;;45.83;31.23;;;;;;;9.00;49.62;101617.50;4147844;28;20065;-59
2022/03/25 05:01:30;;;;;;;44.30;29.65;;;;;;;9.00;49.89;101622.69;4140923;28;20050;-59
2022/03/25 05:03:33;;;;;;;54.70;29.38;;;;;;;8.95;49.80;101615.56;4163365;28;20037;-59
2022/03/25 05:05:37;;;;;;;42.10;28.75;;;;;;;8.97;50.35;101619.09;4137223;28;20472;-59
2022/03/25 05:07:43;;;;;;;44.22;30.30;;;;;;;9.01;49.27;101627.06;4161195;28;20103;-59
2022/03/25 05:09:46;;;;;;;44.22;30.65;;;;;;;9.05;49.54;101621.19;4164293;28;20091;-58
2022/03/25 05:11:48;;;;;;;39.65;25.90;;;;;;;9.07;49.04;101624.69;4164143;28;20056;-58
2022/03/25 05:13:51;;;;;;;48.20;30.60;;;;;;;9.27;48.15;101624.56;4145381;28;20077;-59
2022/03/25 05:15:54;;;;;;;40.20;28.48;;;;;;;9.30;46.40;101627.31;4154578;28;20037;-59
2022/03/25 05:17:57;;;;;;;42.55;29.65;;;;;;;9.28;45.31;101628.06;4163718;28;20041;-59
2022/03/25 05:20:04;;;;;;;42.50;29.50;;;;;;;9.30;45.31;101627.31;4163484;28;20041;-59
2022/03/25 05:22:07;;;;;;;50.33;29.25;;;;;;;9.36;45.10;101621.44;4163922;28;20115;-59
2022/03/25 05:24:12;;;;;;;52.80;29.40;;;;;;;9.29;45.08;101625.53;4161199;28;20507;-59
2022/03/25 05:26:15;;;;;;;45.78;30.08;;;;;;;9.25;45.20;101623.66;4158729;28;20503;-59
2022/03/25 05:28:25;;;;;;;49.60;31.75;;;;;;;9.28;45.10;101628.06;4157763;28;20053;-59
2022/03/25 05:30:30;;;;;;;45.35;30.63;;;;;;;9.16;45.19;101633.69;4159195;28;20439;-59
2022/03/25 05:32:33;;;;;;;52.50;31.50;;;;;;;9.28;45.15;101628.06;4144867;28;20067;-58
2022/03/25 05:34:36;;;;;;;47.70;31.15;;;;;;;9.20;45.33;101639.03;4138151;28;20046;-58
2022/03/25 05:36:39;;;;;;;49.40;32.38;;;;;;;9.24;45.20;101645.22;4142755;28;20034;-59
2022/03/25 05:38:42;;;;;;;43.65;30.30;;;;;;;9.08;45.53;101642.03;4161125;28;20103;-59
2022/03/25 05:40:46;;;;;;;51.47;32.53;;;;;;;9.17;45.90;101646.72;4155818;28;20661;-59
2022/03/25 05:42:50;;;;;;;49.60;31.23;;;;;;;9.21;45.48;101645.09;4158006;28;20068;-60
2022/03/25 05:44:52;;;;;;;48.37;31.13;;;;;;;9.12;45.63;101652.53;4160197;28;20049;-60
2022/03/25 05:46:55;;;;;;;42.33;29.98;;;;;;;9.23;45.16;101656.44;4163861;28;20296;-59
2022/03/25 05:48:58;;;;;;;48.10;29.75;;;;;;;9.29;45.21;101654.09;4163794;28;20053;-59
2022/03/25 05:51:00;;;;;;;45.40;30.30;;;;;;;9.11;45.47;101656.81;4149923;28;20115;-59
2022/03/25 05:53:03;;;;;;;44.35;30.33;;;;;;;9.05;46.00;101654.91;4149867;28;20045;-59
2022/03/25 05:55:12;;;;;;;51.35;30.73;;;;;;;9.18;45.94;101657.97;4155989;28;20033;-59
2022/03/25 05:57:16;;;;;;;43.95;30.48;;;;;;;9.10;46.00;101660.25;4167065;28;20076;-59
2022/03/25 05:59:19;;;;;;;49.03;31.70;;;;;;;9.09;46.38;101676.66;4167446;28;20052;-59
2022/03/25 06:01:22;;;;;;;49.10;32.70;;;;;;;9.06;46.37;101663.56;4151663;28;20100;-60
2022/03/25 06:03:25;;;;;;;51.78;30.52;;;;;;;9.02;46.13;101666.84;4165078;28;20512;-60
2022/03/25 06:05:28;;;;;;;53.47;32.45;;;;;;;8.98;46.77;101670.13;4147335;28;20050;-60
2022/03/25 06:07:36;;;;;;;48.80;31.20;;;;;;;9.06;46.31;101666.16;4151928;28;20550;-60
2022/03/25 06:09:38;;;;;;;45.25;31.58;;;;;;;8.98;46.45;101671.03;4150459;28;20045;-60
2022/03/25 06:11:41;;;;;;;41.05;28.38;;;;;;;8.91;47.20;101672.47;4151055;28;20050;-59
2022/03/25 06:13:45;;;;;;;49.42;29.50;;;;;;;8.95;47.52;101676.09;4150386;28;20096;-59
2022/03/25 06:15:48;;;;;;;44.63;29.37;;;;;;;8.91;47.63;101675.06;4159821;28;20060;-60
2022/03/25 06:17:51;;;;;;;44.75;30.42;;;;;;;8.97;47.24;101683.94;4149332;28;20289;-60
2022/03/25 06:19:54;;;;;;;42.67;28.83;;;;;;;8.96;48.01;101683.03;4165185;28;20052;-60
2022/03/25 06:21:57;;;;;;;46.20;30.65;;;;;;;9.05;47.23;101691.22;4165505;28;20475;-60
2022/03/25 06:24:00;;;;;;;49.33;32.67;;;;;;;9.13;47.36;101693.25;4161573;28;20045;-60
2022/03/25 06:26:05;;;;;;;51.33;31.13;;;;;;;9.31;46.75;101688.75;4142540;28;20034;-60
2022/03/25 06:28:08;;;;;;;53.10;31.88;;;;;;;9.34;46.33;101693.19;4163964;28;20068;-59
2022/03/25 06:30:13;;;;;;;45.35;31.75;;;;;;;9.25;46.29;101691.13;4165341;28;20029;-60
2022/03/25 06:32:16;;;;;;;48.42;33.20;;;;;;;9.18;46.42;101699.47;4165625;28;20046;-60
2022/03/25 06:34:23;;;;;;;55.50;27.70;;;;;;;8.98;47.33;101693.47;4148075;28;20053;-60
2022/03/25 06:36:25;;;;;;;50.38;28.08;;;;;;;8.98;47.22;101696.97;4162148;28;20506;-59
2022/03/25 06:38:28;;;;;;;49.03;32.47;;;;;;;9.10;46.79;101704.38;4162367;28;20104;-60
2022/03/25 06:40:31;;;;;;;54.30;30.90;;;;;;;9.20;46.43;101703.00;4162456;28;20053;-60
2022/03/25 06:42:34;;;;;;;49.75;31.88;;;;;;;9.13;46.38;101695.81;4163975;28;20107;-60
2022/03/25 06:44:39;;;;;;;44.30;28.90;;;;;;;9.12;46.79;101697.53;4163051;28;20446;-60
2022/03/25 06:46:43;;;;;;;51.15;32.40;;;;;;;9.22;47.10;101701.38;4165099;28;20399;-59
2022/03/25 06:48:47;;;;;;;55.17;32.17;;;;;;;9.23;46.92;101698.84;4164693;28;20091;-60
2022/03/25 06:50:50;;;;;;;47.55;31.50;;;;;;;9.21;46.95;101690.13;4164425;28;20112;-59
2022/03/25 06:52:54;;;;;;;53.20;29.92;;;;;;;9.16;47.08;101698.53;4164086;28;20421;-60
2022/03/25 06:54:57;;;;;;;51.88;32.28;;;;;;;9.24;46.98;101704.91;4163204;28;20041;-60
2022/03/25 06:57:01;;;;;;;52.75;32.45;;;;;;;9.35;46.87;101701.03;4165262;28;20087;-60
2022/03/25 06:59:04;;;;;;;47.10;30.80;;;;;;;9.38;46.53;101713.25;4145154;28;20618;-59
2022/03/25 07:01:07;;;;;;;62.72;32.00;;;;;;;9.37;46.42;101716.66;4163917;28;20067;-60
2022/03/25 07:03:14;;;;;;;51.88;34.63;;;;;;;9.39;46.54;101705.53;4146102;28;20050;-59
2022/03/25 07:05:17;;;;;;;54.70;30.88;;;;;;;9.19;47.13;101709.91;4153843;28;20049;-60
2022/03/25 07:07:25;;;;;;;49.63;32.00;;;;;;;9.10;47.26;101717.34;4166062;28;20049;-60
2022/03/25 07:09:29;;;;;;;55.70;31.25;;;;;;;9.25;46.97;101714.47;4146578;28;20097;-59
2022/03/25 07:11:32;;;;;;;55.78;32.58;;;;;;;9.28;47.00;101716.31;4147320;28;20629;-59
2022/03/25 07:13:35;;;;;;;47.55;30.98;;;;;;;9.30;47.03;101718.16;4163241;28;20034;-60
2022/03/25 07:15:38;;;;;;;51.00;32.88;;;;;;;9.32;47.12;101721.66;4160682;28;20038;-61
2022/03/25 07:17:43;;;;;;;55.47;33.25;;;;;;;9.13;47.08;101717.47;4159984;28;20111;-60
2022/03/25 07:19:47;;;;;;;50.08;32.20;;;;;;;9.16;47.57;101720.16;4162989;28;20414;-60
2022/03/25 07:21:49;;;;;;;37.90;27.05;;;;;;;9.11;47.80;101713.03;4146934;28;20108;-60
2022/03/25 07:23:52;;;;;;;47.30;31.67;;;;;;;9.19;47.62;101717.69;4163548;28;20064;-60
2022/03/25 07:25:55;;;;;;;64.18;33.58;;;;;;;9.42;46.89;101716.03;4163244;28;20048;-60
2022/03/25 07:27:58;;;;;;;49.17;32.30;;;;;;;9.49;46.99;101716.25;4141687;28;20442;-59
2022/03/25 07:30:00;;;;;;;52.17;31.17;;;;;;;9.37;47.15;101725.31;4162882;28;20084;-60
2022/03/25 07:32:04;;;;;;;57.15;32.13;;;;;;;9.48;47.15;101714.50;4157501;28;20073;-60
2022/03/25 07:34:07;;;;;;;53.75;31.60;;;;;;;9.48;47.12;101719.69;4157815;28;20383;-60
2022/03/25 07:36:11;;;;;;;55.40;33.40;;;;;;;9.49;46.71;101718.84;4160467;28;20033;-60
2022/03/25 07:38:13;;;;;;;53.00;33.25;;;;;;;9.39;47.00;101715.91;4157361;28;20462;-60
2022/03/25 07:40:17;;;;;;;52.78;32.38;;;;;;;9.44;47.00;101719.53;4162590;28;20064;-59
2022/03/25 07:42:20;;;;;;;54.40;32.80;;;;;;;9.59;46.55;101715.78;4152557;28;20059;-59
2022/03/25 07:44:23;;;;;;;56.03;31.60;;;;;;;9.43;46.79;101723.00;4160113;28;20074;-59
2022/03/25 07:46:27;;;;;;;53.55;32.88;;;;;;;9.34;47.41;101724.31;4157773;28;20474;-60
2022/03/25 07:48:30;;;;;;;55.65;30.05;;;;;;;9.44;47.14;101726.47;4164249;28;20041;-59
2022/03/25 07:50:32;;;;;;;47.90;33.50;;;;;;;9.64;47.31;101732.44;4140943;28;20590;-60
2022/03/25 07:52:37;;;;;;;51.70;31.08;;;;;;;9.78;46.60;101728.66;4147497;28;20077;-60
2022/03/25 07:54:39;;;;;;;49.38;31.13;;;;;;;9.88;46.33;101726.38;4165501;28;20045;-59
2022/03/25 07:56:42;;;;;;;56.42;33.63;;;;;;;9.88;46.16;101729.88;4165160;28;20045;-59
2022/03/25 07:58:45;;;;;;;57.08;34.03;;;;;;;9.91;46.06;101731.69;4165395;28;20049;-59
2022/03/25 08:00:48;;;;;;;53.25;33.95;;;;;;;9.83;46.29;101734.03;4165380;28;20403;-60
2022/03/25 08:02:53;;;;;;;52.60;33.70;;;;;;;10.02;46.17;101730.41;4157917;28;20046;-60
2022/03/25 08:04:55;;;;;;;;;;;;;;;10.01;45.88;101733.81;4131854;28;20138;-60
2022/03/25 08:06:58;;;;;;;51.45;33.30;;;;;;;10.10;46.14;101728.06;4163132;28;19928;-60
2022/03/25 08:09:02;;;;;;;51.47;31.60;;;;;;;10.11;45.99;101733.31;4148771;28;20034;-59
2022/03/25 08:11:06;;;;;;;51.17;32.75;;;;;;;10.10;45.93;101734.16;4148747;28;20050;-59
2022/03/25 08:13:10;;;;;;;58.38;33.75;;;;;;;10.21;46.10;101741.47;4131112;28;20440;-60
2022/03/25 08:15:13;;;;;;;58.15;34.25;;;;;;;10.35;45.84;101737.66;4148002;28;20508;-60
2022/03/25 08:17:17;;;;;;;52.00;33.45;;;;;;;10.43;45.64;101732.75;4148757;28;20054;-60
2022/03/25 08:19:20;;;;;;;48.83;33.85;;;;;;;10.48;45.44;101732.09;4148682;28;20068;-60
2022/03/25 08:21:22;;;;;;;58.67;35.60;;;;;;;10.75;45.53;101733.88;4148780;28;20065;-60
2022/03/25 08:28:19;;;;;;;65.80;38.03;;;;;;;10.88;44.99;101744.66;4098165;29;20643;-60
2022/03/25 08:30:23;;;;;;;53.47;35.10;;;;;;;10.86;44.91;101744.63;4140519;28;20088;-60
2022/03/25 08:32:26;;;;;;;54.33;34.17;;;;;;;10.97;44.39;101739.78;4164960;28;20041;-60
2022/03/25 08:34:29;;;;;;;55.05;36.40;;;;;;;11.11;45.12;101751.53;4164907;28;20056;-60
2022/03/25 08:36:32;;;;;;;59.28;35.33;;;;;;;11.27;45.19;101746.81;4146970;28;20042;-60
2022/03/25 08:38:34;;;;;;;54.45;36.95;;;;;;;11.42;44.67;101738.59;4164781;28;20080;-60
2022/03/25 08:40:38;;;;;;;60.42;37.42;;;;;;;11.49;44.24;101740.56;4159153;28;20436;-60
2022/03/25 08:43:04;;;;;;;65.30;36.42;;;;;;;11.53;44.06;101734.63;4146966;28;20482;-60
2022/03/25 08:45:08;;;;;;;52.53;35.88;;;;;;;11.51;44.32;101731.97;4148246;28;20081;-59
2022/03/25 08:47:10;;;;;;;64.50;37.92;;;;;;;11.73;43.74;101735.25;4148318;28;20053;-60
2022/03/25 08:49:13;;;;;;;55.72;36.75;;;;;;;11.66;43.94;101730.69;4151847;28;20124;-60
2022/03/25 08:51:16;;;;;;;57.25;36.40;;;;;;;11.77;43.45;101730.97;4160369;28;20049;-60
2022/03/25 08:53:19;;;;;;;54.97;35.13;;;;;;;11.92;42.98;101735.78;4156058;28;20588;-60
2022/03/25 08:55:22;;;;;;;53.85;33.53;;;;;;;11.88;42.54;101733.09;4155251;28;20531;-60
2022/03/25 08:57:25;;;;;;;52.08;35.88;;;;;;;11.91;42.37;101744.44;4162127;28;20042;-60
2022/03/25 08:59:30;;;;;;;47.08;32.17;;;;;;;11.87;42.56;101733.94;4154988;28;20095;-60
2022/03/25 09:01:34;;;;;;;55.83;35.47;;;;;;;12.02;42.52;101730.03;4157617;28;20041;-60
2022/03/25 09:03:36;;;;;;;57.25;36.35;;;;;;;12.20;42.12;101732.28;4154153;28;20480;-60
2022/03/25 09:05:40;;;;;;;50.42;31.77;;;;;;;11.92;42.81;101728.84;4147602;28;20045;-60
2022/03/25 09:07:44;;;;;;;54.70;34.30;;;;;;;11.94;43.22;101729.78;4149862;28;20321;-60
2022/03/25 09:09:47;;;;;;;47.87;32.67;;;;;;;12.08;43.18;101730.22;4149403;28;20045;-60
2022/03/25 09:11:49;;;;;;;51.67;34.63;;;;;;;12.29;42.52;101732.50;4133806;28;20305;-60
2022/03/25 09:13:52;;;;;;;47.08;30.92;;;;;;;12.45;41.92;101730.34;4161676;28;20045;-59
2022/03/25 09:15:57;;;;;;;53.08;33.97;;;;;;;12.71;41.05;101731.91;4149370;28;20041;-60
2022/03/25 09:17:59;;;;;;;42.40;30.00;;;;;;;12.70;41.64;101726.66;4157462;28;20530;-60
2022/03/25 09:20:08;;;;;;;46.83;32.00;;;;;;;12.69;41.84;101725.78;4161843;28;20045;-59
2022/03/25 09:22:11;;;;;;;49.95;31.60;;;;;;;12.80;41.32;101726.03;4156260;28;20197;-60
2022/03/25 09:24:17;;;;;;;55.20;35.40;;;;;;;12.91;40.35;101721.09;4140146;28;20100;-59
2022/03/25 09:26:19;;;;;;;55.65;38.63;;;;;;;13.13;39.83;101717.28;4146293;28;20534;-60
2022/03/25 09:28:22;;;;;;;52.97;35.22;;;;;;;13.25;40.20;101728.00;4163662;28;20046;-60
2022/03/25 09:30:25;;;;;;;53.65;36.63;;;;;;;13.27;39.62;101721.09;4160668;28;20128;-60